Vistas de Luquillo, Puerto Rico
Current Conditions -  °F | °C
As of 10:53 AM on Wednesday 26 Nov 2014 (Local Time) from TJNR Reporting Station
Clear Clear  
Wind Chill: 85°   Ceiling: Unl
Heat Index: 91°   Visibility: 10mi
Dew Point: 72°   Wind: 12mph
Humidity: 65%   Direction: 80°E
Pressure: 30.07"   Gusts: NA
Location:  18.3744°N, 65.7168°W
Report Text: TJNR 261453Z AUTO 08010KT 10SM CLR 29/22 A3007 RMK AO2 SLP183 T02940222 50002 $
Loading
Personal Weather Stations






























Interactive Weather Map New forecast layout! Learn more

10-Day Weather Forecast

Advertisements
Track Severe Weather on mobile